METAR stanice u blizini

 

LYBE - Beograd / Surčin, Srbija
Ažurirano: 30/11/2022 04:30
Few Clouds
Few Clouds
 Pravac vetra I
Vetar: I 15 km/h
Temperatura: 6°C
Osećaj hladnoće: 3°C
Tačka rose: 3°C
Vlažnost: 81%
Pritisak: 1020 hPa
Oblaci: Few Clouds
Vidljivost: 10 km
Cloud details: Few Clouds 610 m
2022/11/30 03:30 LYBE 300330Z 08008KT 050V110 9999 FEW020 06/03 Q1020 NOSIG
LYBT - Beograd / Batajnica, Srbija
Ažurirano: 30/11/2022 04:30
Few Clouds
Few Clouds
 Pravac vetra SSI
Vetar: SSI 13 km/h
Temperatura: 4°C
Osećaj hladnoće: 1°C
Tačka rose: 4°C
Vlažnost: 100%
Pritisak: 1020 hPa
Oblaci: Few Clouds
Vidljivost: 10 km
Cloud details: Few Clouds 914 m
2022/11/30 03:30 LYBT 300330Z 03007KT 9999 FEW030 04/04 Q1020 NOSIG
LYVR - Vršac, Srbija
Ažurirano: 30/11/2022 04:30
Vedro
Vedro
 Pravac vetra varies
Vetar: varies 4 km/h
Temperatura: 3°C
Tačka rose: 3°C
Vlažnost: 100%
Pritisak: 1021 hPa
Pregled: Vedro
Vidljivost: greater than 10 km
2022/11/30 03:30 LYVR 300330Z AUTO VRB02KT CAVOK 03/03 Q1021
 
LYKV - Lađevci, Srbija
Ažurirano: 30/11/2022 04:30
Mostly Cloudy
Mostly Cloudy
 Pravac vetra varies
Vetar: varies 2 km/h
Temperatura: 3°C
Tačka rose: 3°C
Vlažnost: 100%
Pritisak: 1019 hPa
Oblaci: Mostly Cloudy
Vidljivost: 10 km
Cloud details: Mostly Cloudy 914 m
2022/11/30 03:30 LYKV 300330Z VRB01KT 9999 BKN030 03/03 Q1019 NOSIG
LYNI - Niš, Srbija
Ažurirano: 30/11/2022 04:30
Partly Cloudy
Partly Cloudy
 Pravac vetra varies
Vetar: varies 4 km/h
Temperatura: 2°C
Tačka rose: 2°C
Vlažnost: 100%
Pritisak: 1018 hPa
Oblaci: Partly Cloudy
Vidljivost: 10 km
Cloud details: Partly Cloudy 1524 m
2022/11/30 03:30 LYNI 300330Z VRB02KT 9999 SCT050 02/02 Q1018 NOSIG
BKPR - Priština, Srbija
Ažurirano: 30/11/2022 04:30
Mostly Cloudy
Mostly Cloudy
 Pravac vetra S
Vetar: S 20 km/h
Temperatura: 2°C
Osećaj hladnoće: -3°C
Tačka rose: 1°C
Vlažnost: 93%
Pritisak: 1016 hPa
Oblaci: Mostly Cloudy
Vidljivost: 10 km
Cloud details: Partly Cloudy 366 m
Mostly Cloudy 914 m
2022/11/30 03:30 BKPR 300330Z 36011KT 9999 SCT012 BKN030 02/01 Q1016 NOSIG
 
LHPP - Pecs / Pogany, Hungary
Ažurirano: 30/11/2022 04:15
Oblačno
Oblačno
 Pravac vetra ISI
Vetar: ISI 11 km/h
Temperatura: 3°C
Osećaj hladnoće: 0°C
Tačka rose: 2°C
Vlažnost: 93%
Pritisak: 1020 hPa
Oblaci: Oblačno
Vidljivost: 6 km
Cloud details: Oblačno 975 m
2022/11/30 03:15 LHPP 300315Z AUTO 07006KT 6000 OVC032 03/02 Q1020
LHUD - Szeged, Hungary
Ažurirano: 04/07/2019 01:45
NOT Current
Vedro
Vedro
 Pravac vetra S
Vetar: S 7 km/h
Temperatura: 18°C
Tačka rose: 13°C
Vlažnost: 73%
Pritisak: 1019 hPa
Pregled: Vedro
Vidljivost: greater than 10 km
2019/07/03 23:45 LHUD 032345Z 35004KT CAVOK 18/13 Q1019
LRTR - Timisoara, Romania
Ažurirano: 30/11/2022 04:30
Vedro
Vedro
 Pravac vetra ISI
Vetar: ISI 9 km/h
Temperatura: 3°C
Osećaj hladnoće: 0°C
Tačka rose: 3°C
Vlažnost: 100%
Pritisak: 1020 hPa
Pregled: Vedro
Vidljivost: greater than 10 km
2022/11/30 03:30 LRTR 300330Z 06005KT CAVOK 03/03 Q1020
 
LRCV - Craiova, Romania
Ažurirano: 30/11/2022 04:30
Mostly Cloudy
Mostly Cloudy
 Pravac vetra ISI
Vetar: ISI 24 km/h
Oblaci: Mostly Cloudy
Vidljivost: 10 km
Cloud details: Mostly Cloudy 213 m
Mostly Cloudy 610 m
2022/11/30 03:30 LRCV 300330Z 07013KT 9999 BKN007 BKN020 04/// Q1022
LBSF - Sofia, Bulgaria
Ažurirano: 30/11/2022 04:30
Light drizzle, Oblačno
Light drizzle, Oblačno
 Pravac vetra IJI
Vetar: IJI 7 km/h
Temperatura: 3°C
Osećaj hladnoće: 1°C
Tačka rose: 3°C
Vlažnost: 100%
Pritisak: 1018 hPa
Pregled: Light Drizzle
Oblaci: Oblačno
Vidljivost: 6 km
Cloud details: Few Clouds 122 m
Partly Cloudy 244 m
Oblačno 366 m
2022/11/30 03:30 LBSF 300330Z AUTO 11004KT 6000 -DZ FEW004/// SCT008/// OVC012/// 03/03 Q1018 TEMPO 3000 BR SCT003
LWSK - Skoplje, Makedonija
Ažurirano: 30/11/2022 04:00
Oblačno
Oblačno
 Pravac vetra calm
Vetar: Tišina
Temperatura: 4°C
Tačka rose: 2°C
Vlažnost: 87%
Pritisak: 1017 hPa
Oblaci: Oblačno
Vidljivost: 10 km
Cloud details: Oblačno 1219 m
2022/11/30 03:00 LWSK 300300Z 00000KT 9999 OVC040 04/02 Q1017 NOSIG
 
LYPG - Podgorica, Crna Gora
Ažurirano: 30/11/2022 04:30
Vedro
Vedro
 Pravac vetra SSZ
Vetar: SSZ 6 km/h
Temperatura: 4°C
Tačka rose: 1°C
Vlažnost: 81%
Pritisak: 1014 hPa
Pregled: Vedro
Vidljivost: greater than 10 km
2022/11/30 03:30 LYPG 300330Z 33003KT CAVOK 04/01 Q1014 NOSIG
LQSA - Sarajevo, Bosna i Hercegovina
Ažurirano: 30/11/2022 04:00
Oblačno
Oblačno
 Pravac vetra calm
Vetar: Tišina
Temperatura: 2°C
Tačka rose: 1°C
Vlažnost: 93%
Pritisak: 1016 hPa
Oblaci: Oblačno
Vidljivost: 6 km
Cloud details: Oblačno 610 m
2022/11/30 03:00 LQSA 300300Z 00000KT 6000 OVC020 02/01 Q1016
LDOS - Osijek, Hrvatksa
Ažurirano: 30/11/2022 04:30
Oblačno
Oblačno
 Pravac vetra SI
Vetar: SI 15 km/h
Temperatura: 3°C
Osećaj hladnoće: -1°C
Tačka rose: 2°C
Vlažnost: 93%
Pritisak: 1020 hPa
Oblaci: Oblačno
Vidljivost: 6 km
Cloud details: Oblačno 396 m
2022/11/30 03:30 LDOS 300330Z 05008KT 6000 OVC013 03/02 Q1020